Time;durP1;ratioP1;P1;durP2;ratioP2;P2;SDS_P1;SDS_P2;PMS_P1;PMS_P2;Temp;Humidity;BMP_temperature;BMP_pressure;BME280_temperature;BME280_humidity;BME280_pressure;Samples;Min_cycle;Max_cycle;Signal;HPM_P1;HPM_P2
2021/03/16 00:02:04;;;;;;;;;;;;;;;2.11;100.00;91451.50;4994506;28;20045;-78
2021/03/16 00:04:31;;;;;;;4.43;2.42;;;;;;;2.06;100.00;91448.78;5009626;28;19944;-78
2021/03/16 00:06:57;;;;;;;;;;;;;;;2.03;100.00;91451.75;5010104;28;20049;-78
2021/03/16 00:09:23;;;;;;;3.58;1.60;;;;;;;2.00;100.00;91450.38;5009634;28;20338;-78
2021/03/16 00:11:49;;;;;;;;;;;;;;;1.99;100.00;91447.06;5009913;28;20054;-78
2021/03/16 00:14:16;;;;;;;2.90;1.50;;;;;;;2.04;100.00;91448.22;5008450;28;19936;-78
2021/03/16 00:16:43;;;;;;;7.82;2.13;;;;;;;2.00;100.00;91442.78;5009322;28;20052;-78
2021/03/16 00:19:09;;;;;;;5.60;2.58;;;;;;;2.05;100.00;91447.25;5009084;28;20046;-79
2021/03/16 00:21:35;;;;;;;;;;;;;;;2.07;100.00;91446.06;4990289;28;20046;-78
2021/03/16 00:24:01;;;;;;;4.03;1.55;;;;;;;1.94;100.00;91444.34;4989562;28;19921;-78
2021/03/16 00:26:28;;;;;;;2.58;1.67;;;;;;;2.05;100.00;91453.09;4989746;28;20046;-79
2021/03/16 00:28:54;;;;;;;;;;;;;;;2.08;100.00;91454.44;4990417;28;20411;-78
2021/03/16 00:31:21;;;;;;;4.55;2.70;;;;;;;2.07;100.00;91448.59;4989595;28;19926;-78
2021/03/16 00:33:48;;;;;;;8.00;2.13;;;;;;;1.99;100.00;91439.47;4989367;28;20051;-78
2021/03/16 00:36:14;;;;;;;10.32;4.40;;;;;;;1.99;100.00;91447.06;4989534;28;20051;-79
2021/03/16 00:38:41;;;;;;;;;;;;;;;2.01;100.00;91459.53;4991590;28;20439;-79
2021/03/16 00:41:07;;;;;;;3.33;1.02;;;;;;;1.92;100.00;91448.06;5009157;28;20294;-78
2021/03/16 00:43:33;;;;;;;7.72;1.42;;;;;;;1.92;100.00;91450.59;5009513;28;20422;-79
2021/03/16 00:45:59;;;;;;;;;;;;;;;1.96;100.00;91456.81;5009806;28;20116;-78
2021/03/16 00:48:27;;;;;;;1.05;0.57;;;;;;;1.81;100.00;91444.41;5008882;28;19971;-78
2021/03/16 00:50:54;;;;;;;1.08;0.77;;;;;;;1.79;100.00;91448.88;5004126;28;20050;-78
2021/03/16 00:53:20;;;;;;;1.10;0.93;;;;;;;1.76;100.00;91450.06;4989551;28;20050;-78
2021/03/16 00:55:46;;;;;;;;;;;;;;;1.79;100.00;91454.72;4989978;28;20108;-78
2021/03/16 00:58:12;;;;;;;1.27;0.50;;;;;;;1.69;100.00;91439.97;5026199;28;19921;-78
2021/03/16 01:00:38;;;;;;;;;;;;;;;1.79;100.00;91448.88;5032860;28;20053;-78
2021/03/16 01:03:05;;;;;;;0.70;0.52;;;;;;;1.72;100.00;91442.09;5020068;28;19928;-77
2021/03/16 01:05:33;;;;;;;1.02;0.73;;;;;;;1.75;100.00;91440.91;5012904;28;20407;-78
2021/03/16 01:07:59;;;;;;;1.08;0.65;;;;;;;1.74;100.00;91434.31;5012803;28;20392;-78
2021/03/16 01:10:26;;;;;;;;;;;;;;;1.80;100.00;91438.56;5013144;28;20424;-78
2021/03/16 01:12:52;;;;;;;0.43;0.30;;;;;;;1.75;100.00;91437.63;5012821;28;19921;-78
2021/03/16 01:15:18;;;;;;;;;;;;;;;1.80;100.00;91436.03;5012759;28;20553;-78
2021/03/16 01:17:44;;;;;;;0.63;0.47;;;;;;;1.73;100.00;91433.50;5012754;28;19968;-77
2021/03/16 01:20:12;;;;;;;;;;;;;;;1.80;100.00;91441.09;5013028;28;20473;-78
2021/03/16 01:22:39;;;;;;;4.28;0.70;;;;;;;1.79;100.00;91442.06;5012248;28;20378;-78
2021/03/16 01:25:07;;;;;;;1.02;0.55;;;;;;;1.79;100.00;91438.75;5011917;28;20104;-77
2021/03/16 01:27:33;;;;;;;2.55;1.15;;;;;;;1.85;100.00;91446.34;5012694;28;20058;-78
2021/03/16 01:29:59;;;;;;;;;;;;;;;1.87;100.00;91443.63;5012715;28;20046;-78
2021/03/16 01:32:26;;;;;;;0.82;0.60;;;;;;;1.81;100.00;91446.94;5012053;28;19932;-78
2021/03/16 01:34:52;;;;;;;1.83;1.13;;;;;;;1.74;100.00;91431.78;5012352;28;20046;-79
2021/03/16 01:37:19;;;;;;;2.80;0.70;;;;;;;1.77;100.00;91445.78;5012042;28;20064;-78
2021/03/16 01:39:48;;;;;;;3.17;2.10;;;;;;;1.77;100.00;91446.56;5012459;28;20801;-79
2021/03/16 01:42:14;;;;;;;2.35;1.10;;;;;;;1.76;100.00;91450.06;5012234;28;20148;-78
2021/03/16 01:44:43;;;;;;;;;;;;;;;1.73;100.00;91443.63;5012449;28;20050;-79
2021/03/16 01:47:10;;;;;;;0.70;0.60;;;;;;;1.68;100.00;91446.00;5011566;28;19921;-79
2021/03/16 01:49:37;;;;;;;1.30;0.60;;;;;;;1.69;100.00;91442.50;5012119;28;20411;-79
2021/03/16 01:52:05;;;;;;;1.35;0.90;;;;;;;1.67;100.00;91438.63;4997452;28;20050;-79
2021/03/16 01:54:31;;;;;;;1.70;0.80;;;;;;;1.72;100.00;91447.16;4992420;28;20408;-80
2021/03/16 01:57:00;;;;;;;;;;;;;;;1.69;100.00;91445.03;4992723;28;20054;-80
2021/03/16 01:59:27;;;;;;;1.65;0.77;;;;;;;1.46;100.00;91426.00;5011547;28;19925;-80
2021/03/16 02:01:54;;;;;;;1.45;0.82;;;;;;;1.51;100.00;91440.59;5008940;28;20431;-78
2021/03/16 02:04:20;;;;;;;1.35;0.80;;;;;;;1.56;100.00;91450.91;4991913;28;20522;-79
2021/03/16 02:06:53;;;;;;;3.13;1.52;;;;;;;1.56;100.00;91443.31;4991860;28;20101;-79
2021/03/16 02:09:28;;;;;;;3.97;1.42;;;;;;;1.56;100.00;91448.38;4991846;28;20459;-79
2021/03/16 02:12:02;;;;;;;1.63;1.10;;;;;;;1.56;100.00;91443.31;4992192;28;20057;-79
2021/03/16 02:14:32;;;;;;;2.30;1.00;;;;;;;1.52;100.00;91447.19;4991548;28;20049;-79
2021/03/16 02:17:06;;;;;;;0.85;0.60;;;;;;;1.39;100.00;91449.78;4991998;28;20492;-79
2021/03/16 02:20:08;;;;;;;1.35;0.70;;;;;;;1.42;100.00;91445.09;4991974;28;20061;-79
2021/03/16 02:22:39;;;;;;;0.68;0.50;;;;;;;1.28;100.00;91439.28;5003910;28;20060;-78
2021/03/16 02:25:20;;;;;;;1.73;0.88;;;;;;;1.20;100.00;91436.94;5010911;28;20475;-78
2021/03/16 02:28:22;;;;;;;1.45;0.40;;;;;;;1.41;100.00;91452.88;5010911;28;20050;-79
2021/03/16 02:30:51;;;;;;;4.10;1.65;;;;;;;1.41;100.00;91456.19;5011161;28;20121;-77
2021/03/16 02:33:22;;;;;;;6.07;2.17;;;;;;;1.42;100.00;91459.47;5010924;28;20526;-77
2021/03/16 02:35:50;;;;;;;3.95;1.70;;;;;;;1.46;100.00;91455.59;5010807;28;20050;-77
2021/03/16 02:38:22;;;;;;;2.38;1.70;;;;;;;1.45;100.00;91461.63;5011003;28;20057;-77
2021/03/16 02:40:50;;;;;;;4.55;1.52;;;;;;;1.41;100.00;91456.19;5010706;28;20503;-77
2021/03/16 02:43:17;;;;;;;2.13;1.10;;;;;;;1.37;100.00;91459.28;5010996;28;20069;-77
2021/03/16 02:45:45;;;;;;;4.18;1.42;;;;;;;1.44;100.00;91470.19;5011063;28;20049;-77
2021/03/16 02:48:14;;;;;;;1.70;1.23;;;;;;;1.30;100.00;91449.97;5011005;28;20050;-77
2021/03/16 02:50:43;;;;;;;1.05;0.65;;;;;;;1.41;100.00;91463.78;5010633;28;20054;-77
2021/03/16 02:53:12;;;;;;;1.77;0.88;;;;;;;1.41;100.00;91468.84;5010495;28;20419;-77
2021/03/16 02:55:39;;;;;;;2.88;1.40;;;;;;;1.42;100.00;91472.13;5010709;28;20494;-78
2021/03/16 02:58:06;;;;;;;0.93;0.57;;;;;;;1.46;100.00;91470.78;5010801;28;20054;-78
2021/03/16 03:00:32;;;;;;;;;;;;;;;1.48;100.00;91476.41;5011245;28;20077;-78
2021/03/16 03:03:00;;;;;;;1.50;0.75;;;;;;;1.29;100.00;91462.81;4999165;28;19925;-78
2021/03/16 03:05:28;;;;;;;1.02;0.75;;;;;;;1.40;100.00;91474.88;4991069;28;20256;-78
2021/03/16 03:07:56;;;;;;;2.88;1.10;;;;;;;1.42;100.00;91479.72;4991039;28;20484;-78
2021/03/16 03:10:23;;;;;;;0.98;0.63;;;;;;;1.35;100.00;91477.22;4990860;28;20042;-78
2021/03/16 03:12:52;;;;;;;0.85;0.57;;;;;;;1.32;100.00;91472.53;4990723;28;20046;-77
2021/03/16 03:15:18;;;;;;;0.73;0.57;;;;;;;1.24;100.00;91476.03;4990883;28;20050;-79
2021/03/16 03:17:44;;;;;;;4.78;0.50;;;;;;;1.21;100.00;91466.34;4990876;28;20046;-79
2021/03/16 03:20:14;;;;;;;0.60;0.30;;;;;;;1.26;100.00;91471.59;4990524;28;20405;-79
2021/03/16 03:22:44;;;;;;;0.75;0.43;;;;;;;1.32;100.00;91480.13;4990674;28;20396;-78
2021/03/16 03:25:18;;;;;;;1.83;1.08;;;;;;;1.32;100.00;91480.13;4990548;28;20593;-79
2021/03/16 03:27:48;;;;;;;0.60;0.45;;;;;;;1.30;100.00;91484.63;4990742;28;20120;-79
2021/03/16 03:30:18;;;;;;;0.77;0.50;;;;;;;1.28;100.00;91486.53;4990558;28;20066;-82
2021/03/16 03:32:45;;;;;;;0.40;0.22;;;;;;;1.28;100.00;91482.28;4990628;28;20050;-77
2021/03/16 03:35:12;;;;;;;0.93;0.65;;;;;;;1.22;100.00;91467.09;4990512;28;20069;-76
2021/03/16 03:37:41;;;;;;;0.95;0.60;;;;;;;1.33;100.00;91479.94;4990642;28;20415;-78
2021/03/16 03:40:12;;;;;;;1.95;0.80;;;;;;;1.34;100.00;91478.16;4990102;28;20054;-77
2021/03/16 03:42:40;;;;;;;0.75;0.63;;;;;;;1.41;100.00;91480.69;4990338;28;20050;-79
2021/03/16 03:45:08;;;;;;;2.58;0.93;;;;;;;1.33;100.00;91476.63;4990977;28;20050;-79
2021/03/16 03:47:36;;;;;;;0.60;0.40;;;;;;;1.23;100.00;91468.66;4995432;28;20169;-79
2021/03/16 03:50:03;;;;;;;0.85;0.60;;;;;;;1.30;100.00;91487.16;4993184;28;20046;-79
2021/03/16 03:52:31;;;;;;;0.50;0.30;;;;;;;1.33;100.00;91497.66;5010312;28;20054;-78
2021/03/16 03:54:59;;;;;;;1.67;0.45;;;;;;;1.38;100.00;91502.09;5011625;28;20053;-80
2021/03/16 03:57:27;;;;;;;0.68;0.50;;;;;;;1.40;100.00;91502.72;5011243;28;20068;-79
2021/03/16 03:59:54;;;;;;;0.57;0.35;;;;;;;1.42;100.00;91505.03;5009648;28;20553;-79
2021/03/16 04:02:20;;;;;;;3.20;1.27;;;;;;;1.20;100.00;91508.53;5009719;28;20045;-80
2021/03/16 04:04:47;;;;;;;1.60;0.80;;;;;;;1.30;100.00;91509.91;5009622;28;20057;-81
2021/03/16 04:07:15;;;;;;;2.28;0.65;;;;;;;1.32;100.00;91502.91;5009647;28;20057;-81
2021/03/16 04:09:42;;;;;;;4.18;0.40;;;;;;;1.23;100.00;91511.66;5009860;28;20046;-81
2021/03/16 04:12:10;;;;;;;0.90;0.50;;;;;;;1.22;100.00;91520.22;5009291;28;20058;-80
2021/03/16 04:14:39;;;;;;;3.42;0.88;;;;;;;1.30;100.00;91523.31;5009621;28;20042;-80
2021/03/16 04:17:06;;;;;;;0.93;0.52;;;;;;;1.35;100.00;91525.28;5009482;28;20096;-81
2021/03/16 04:19:33;;;;;;;1.02;0.68;;;;;;;1.35;100.00;91520.22;5009611;28;20108;-81
2021/03/16 04:21:59;;;;;;;1.00;0.50;;;;;;;1.34;100.00;91513.59;5009229;28;20069;-81
2021/03/16 04:24:26;;;;;;;4.50;1.73;;;;;;;1.36;100.00;91518.47;5009115;28;20050;-81
2021/03/16 04:26:52;;;;;;;1.42;0.75;;;;;;;1.35;100.00;91520.22;5009441;28;20046;-81
2021/03/16 04:29:18;;;;;;;2.33;0.98;;;;;;;1.28;100.00;91512.63;5009388;28;20060;-84
2021/03/16 04:31:45;;;;;;;;;;;;;;;1.35;100.00;91527.03;5009782;28;20533;-82
2021/03/16 04:34:12;;;;;;;1.65;0.90;;;;;;;1.29;100.00;91521.78;5012788;28;19922;-80
2021/03/16 04:36:38;;;;;;;;;;;;;;;1.31;100.00;91516.53;5013993;28;20054;-80
2021/03/16 04:39:04;;;;;;;2.78;1.05;;;;;;;1.23;100.00;91522.56;5013215;28;19983;-81
2021/03/16 04:41:31;;;;;;;1.95;0.70;;;;;;;1.10;100.00;91497.28;5013366;28;20053;-80
2021/03/16 04:43:57;;;;;;;6.95;2.05;;;;;;;1.04;100.00;91478.59;5013073;28;20054;-81
2021/03/16 04:46:24;;;;;;;6.38;2.28;;;;;;;1.30;100.00;91522.56;5013397;28;20455;-80
2021/03/16 04:48:51;;;;;;;5.28;1.75;;;;;;;1.35;100.00;91522.75;5013149;28;20057;-80
2021/03/16 04:51:17;;;;;;;6.45;2.20;;;;;;;1.40;100.00;91524.69;5004817;28;20496;-79
2021/03/16 04:53:44;;;;;;;;;;;;;;;1.36;100.00;91528.56;4994016;28;20097;-80
2021/03/16 04:56:10;;;;;;;5.55;2.13;;;;;;;1.16;100.00;91511.66;4994570;28;19929;-80
2021/03/16 04:58:36;;;;;;;9.85;3.35;;;;;;;1.17;100.00;91515.75;5013372;28;20057;-80
2021/03/16 05:01:03;;;;;;;9.57;3.35;;;;;;;1.31;100.00;91529.16;5012633;28;20042;-81
2021/03/16 05:03:29;;;;;;;7.20;3.17;;;;;;;1.33;100.00;91528.00;5012446;28;20057;-81
2021/03/16 05:05:56;;;;;;;9.10;3.83;;;;;;;1.42;100.00;91533.66;5012656;28;20062;-80
2021/03/16 05:08:23;;;;;;;4.70;2.78;;;;;;;1.28;100.00;91530.34;5012948;28;20404;-80
2021/03/16 05:10:49;;;;;;;;;;;;;;;1.38;100.00;91531.72;5013221;28;20057;-80
2021/03/16 05:13:15;;;;;;;9.93;5.18;;;;;;;1.22;100.00;91521.00;5012036;28;19948;-81
2021/03/16 05:15:42;;;;;;;6.78;4.82;;;;;;;1.27;100.00;91528.78;5012526;28;20101;-81
2021/03/16 05:18:07;;;;;;;;;;;;;;;1.33;100.00;91534.81;5013056;28;20045;-82
2021/03/16 05:20:34;;;;;;;4.65;3.28;;;;;;;1.33;100.00;91543.19;5012373;28;20432;-81
2021/03/16 05:23:01;;;;;;;;;;;;;;;1.44;100.00;91541.81;5013008;28;20050;-81
2021/03/16 05:25:27;;;;;;;6.03;3.05;;;;;;;1.39;100.00;91541.59;5012380;28;19921;-81
2021/03/16 05:27:53;;;;;;;3.63;1.88;;;;;;;1.46;100.00;91546.69;5012595;28;20050;-82
2021/03/16 05:30:20;;;;;;;;;;;;;;;1.50;100.00;91549.59;5012850;28;20050;-82
2021/03/16 05:32:46;;;;;;;4.10;1.90;;;;;;;1.34;100.00;91538.88;5012243;28;20064;-82
2021/03/16 05:35:13;;;;;;;3.83;2.03;;;;;;;1.50;100.00;91559.72;5012376;28;20048;-81
2021/03/16 05:37:40;;;;;;;3.03;1.80;;;;;;;1.48;100.00;91552.31;5012308;28;20053;-80
2021/03/16 05:40:08;;;;;;;3.53;1.30;;;;;;;1.53;100.00;91557.56;5011736;28;20060;-82
2021/03/16 05:42:35;;;;;;;1.80;1.45;;;;;;;1.43;100.00;91542.78;5012326;28;20050;-80
2021/03/16 05:45:02;;;;;;;1.38;1.10;;;;;;;1.56;100.00;91548.81;5011136;28;20515;-81
2021/03/16 05:47:28;;;;;;;2.25;1.52;;;;;;;1.57;100.00;91553.69;5011761;28;21629;-80
2021/03/16 05:49:58;;;;;;;1.98;1.15;;;;;;;1.50;100.00;91534.41;5012089;28;20057;-80
2021/03/16 05:52:24;;;;;;;1.33;1.13;;;;;;;1.63;100.00;91552.13;5011743;28;20046;-78
2021/03/16 05:54:53;;;;;;;2.40;1.30;;;;;;;1.75;100.00;91561.66;5012115;28;20455;-78
2021/03/16 05:57:21;;;;;;;3.53;1.17;;;;;;;1.79;100.00;91566.13;5011506;28;20530;-77
2021/03/16 05:59:48;;;;;;;1.38;1.08;;;;;;;1.78;100.00;91559.50;5011404;28;20507;-76
2021/03/16 06:02:14;;;;;;;1.55;1.10;;;;;;;1.79;100.00;91568.66;5011928;28;20485;-76
2021/03/16 06:04:42;;;;;;;1.83;1.02;;;;;;;1.77;100.00;91573.16;5011715;28;20077;-76
2021/03/16 06:07:09;;;;;;;2.45;1.33;;;;;;;1.89;100.00;91575.09;5011518;28;20061;-76
2021/03/16 06:09:35;;;;;;;;;;;;;;;1.90;100.00;91576.63;5012239;28;20438;-76
2021/03/16 06:12:01;;;;;;;1.75;1.27;;;;;;;1.94;100.00;91581.09;5011459;28;19921;-76
2021/03/16 06:14:32;;;;;;;2.40;1.27;;;;;;;1.95;100.00;91579.34;5011493;28;20046;-76
2021/03/16 06:16:59;;;;;;;5.22;1.88;;;;;;;1.98;100.00;91584.00;5011299;28;20050;-76
2021/03/16 06:19:27;;;;;;;3.55;1.38;;;;;;;2.00;100.00;91585.38;5011461;28;20463;-75
2021/03/16 06:22:00;;;;;;;4.45;1.73;;;;;;;2.14;100.00;91585.34;5011225;28;20487;-76
2021/03/16 06:24:27;;;;;;;1.90;1.38;;;;;;;2.06;100.00;91591.41;5010953;28;20046;-75
2021/03/16 06:26:54;;;;;;;1.63;1.10;;;;;;;2.13;100.00;91599.00;5011357;28;20068;-75
2021/03/16 06:29:21;;;;;;;3.40;1.13;;;;;;;2.09;100.00;91601.13;5010904;28;20058;-75
2021/03/16 06:31:48;;;;;;;2.15;0.60;;;;;;;2.17;100.00;91602.69;5011285;28;20050;-75
2021/03/16 06:34:22;;;;;;;1.15;0.88;;;;;;;2.26;100.00;91611.63;5011153;28;20412;-76
2021/03/16 06:36:57;;;;;;;1.27;0.73;;;;;;;2.31;100.00;91611.03;5010801;28;20109;-76
2021/03/16 06:39:24;;;;;;;1.75;1.00;;;;;;;2.42;100.00;91619.78;5011383;28;20151;-76
2021/03/16 06:41:51;;;;;;;1.52;0.98;;;;;;;2.38;100.00;91627.00;5011008;28;20041;-76
2021/03/16 06:44:19;;;;;;;1.63;0.77;;;;;;;2.43;100.00;91621.34;5010984;28;20057;-76
2021/03/16 06:46:53;;;;;;;1.13;0.47;;;;;;;2.43;100.00;91620.56;5010728;28;20108;-76
2021/03/16 06:49:21;;;;;;;1.48;0.70;;;;;;;2.26;100.00;91606.56;5010656;28;20056;-76
2021/03/16 06:51:48;;;;;;;1.80;0.82;;;;;;;2.40;100.00;91642.00;5010781;28;20046;-76
2021/03/16 06:54:16;;;;;;;4.22;1.60;;;;;;;2.33;100.00;91631.09;5010778;28;20046;-76
2021/03/16 06:56:50;;;;;;;3.97;1.55;;;;;;;2.25;100.00;91645.56;5010100;28;20176;-76
2021/03/16 06:59:21;;;;;;;5.20;2.60;;;;;;;2.34;100.00;91635.97;5010482;28;20233;-75
2021/03/16 07:01:47;;;;;;;6.13;2.92;;;;;;;2.39;100.00;91635.38;5010309;28;20461;-76
2021/03/16 07:04:16;;;;;;;4.85;2.78;;;;;;;2.42;100.00;91637.53;5010343;28;20053;-75
2021/03/16 07:06:43;;;;;;;10.45;3.95;;;;;;;2.43;100.00;91646.69;5010341;28;20049;-75
2021/03/16 07:09:11;;;;;;;5.53;2.85;;;;;;;2.43;100.00;91643.34;5010339;28;20119;-75
2021/03/16 07:11:40;;;;;;;5.65;2.78;;;;;;;2.43;100.00;91651.75;5010576;28;20050;-75
2021/03/16 07:14:07;;;;;;;8.75;3.55;;;;;;;2.48;100.00;91646.88;5010432;28;20074;-75
2021/03/16 07:16:35;;;;;;;4.03;2.55;;;;;;;2.62;100.00;91649.34;5010226;28;20502;-75
2021/03/16 07:19:04;;;;;;;3.90;2.08;;;;;;;2.65;100.00;91652.28;5010063;28;20058;-75
2021/03/16 07:21:37;;;;;;;3.53;2.30;;;;;;;2.52;100.00;91625.22;5010585;28;20054;-75
2021/03/16 07:24:07;;;;;;;3.97;1.08;;;;;;;2.60;100.00;91657.16;5010270;28;20061;-75
2021/03/16 07:26:34;;;;;;;3.22;1.90;;;;;;;2.39;100.00;91674.19;5010087;28;20529;-75
2021/03/16 07:29:04;;;;;;;4.03;2.20;;;;;;;2.30;100.00;91672.06;5010225;28;20414;-75
2021/03/16 07:31:32;;;;;;;1.95;1.00;;;;;;;2.18;100.00;91672.63;5010274;28;20100;-75
2021/03/16 07:34:02;;;;;;;2.50;1.30;;;;;;;2.14;100.00;91684.91;5009996;28;20495;-75
2021/03/16 07:36:28;;;;;;;6.82;3.47;;;;;;;2.14;100.00;91687.44;5009738;28;20515;-75
2021/03/16 07:38:56;;;;;;;6.47;2.65;;;;;;;2.27;100.00;91684.13;5010142;28;20404;-75
2021/03/16 07:41:23;;;;;;;7.70;3.03;;;;;;;2.07;100.00;91679.06;5009727;28;20056;-75
2021/03/16 07:43:49;;;;;;;4.93;2.72;;;;;;;2.15;100.00;91680.63;5009626;28;21053;-76
2021/03/16 07:46:15;;;;;;;;;;;;;;;1.94;100.00;91687.44;5010492;28;20045;-76
2021/03/16 07:48:45;;;;;;;5.05;2.92;;;;;;;2.06;100.00;91687.66;5010000;28;19922;-76
2021/03/16 07:51:13;;;;;;;7.25;3.50;;;;;;;2.03;100.00;91690.56;5009775;28;20077;-75
2021/03/16 07:53:41;;;;;;;8.93;2.72;;;;;;;1.88;100.00;91680.63;5009605;28;20054;-76
2021/03/16 07:56:10;;;;;;;5.15;1.92;;;;;;;2.12;100.00;91686.09;5007768;28;20088;-76
2021/03/16 07:58:46;;;;;;;4.35;2.53;;;;;;;2.11;100.00;91692.13;5009399;28;20054;-75
2021/03/16 08:01:13;;;;;;;8.43;3.17;;;;;;;2.14;100.00;91692.50;5009752;28;20411;-75
2021/03/16 08:03:41;;;;;;;3.22;1.55;;;;;;;2.21;99.71;91704.41;5009461;28;20053;-76
2021/03/16 08:06:07;;;;;;;12.60;2.13;;;;;;;2.06;100.00;91691.94;5009432;28;20081;-76
2021/03/16 08:08:40;;;;;;;;;;;;;;;2.16;100.00;91701.69;5010137;28;20050;-76
2021/03/16 08:11:08;;;;;;;4.55;2.30;;;;;;;2.16;100.00;91701.69;5009228;28;19925;-76
2021/03/16 08:13:34;;;;;;;7.30;3.42;;;;;;;2.29;100.00;91716.09;5009990;28;20057;-76
2021/03/16 08:16:09;;;;;;;;;;;;;;;2.37;100.00;91698.94;5010060;28;20053;-76
2021/03/16 08:18:35;;;;;;;9.07;4.63;;;;;;;2.42;100.00;91703.41;5009577;28;19921;-75
2021/03/16 08:21:08;;;;;;;;;;;;;;;2.42;100.00;91707.69;5009883;28;20085;-76
2021/03/16 08:23:35;;;;;;;8.88;3.85;;;;;;;2.51;100.00;91702.22;5009473;28;19921;-75
2021/03/16 08:26:01;;;;;;;;;;;;;;;2.54;100.00;91711.19;5010024;28;20058;-76
2021/03/16 08:28:28;;;;;;;19.08;6.32;;;;;;;2.51;100.00;91706.53;5009302;28;19937;-76
2021/03/16 08:30:55;;;;;;;6.35;3.13;;;;;;;2.57;100.00;91704.94;5009267;28;20050;-76
2021/03/16 08:33:21;;;;;;;17.17;6.45;;;;;;;2.52;100.00;91708.88;5009136;28;20053;-76
2021/03/16 08:35:49;;;;;;;82.47;22.00;;;;;;;2.59;100.00;91706.31;5009251;28;20077;-76
2021/03/16 08:38:23;;;;;;;40.97;14.95;;;;;;;2.48;100.00;91681.56;5009366;28;20054;-76
2021/03/16 08:41:01;;;;;;;28.85;10.20;;;;;;;2.56;100.00;91681.38;5008964;28;20054;-76
2021/03/16 08:43:29;;;;;;;173.93;50.38;;;;;;;2.69;100.00;91703.38;5008342;28;20411;-76
2021/03/16 08:45:55;;;;;;;64.57;20.77;;;;;;;2.71;100.00;91708.22;5009215;28;20061;-76
2021/03/16 08:48:25;;;;;;;154.02;35.90;;;;;;;2.75;100.00;91727.94;5008885;28;20384;-76
2021/03/16 08:50:51;;;;;;;68.25;21.45;;;;;;;2.76;99.71;91709.19;5009243;28;20054;-76
2021/03/16 08:53:17;;;;;;;;;;;;;;;2.76;100.00;91718.56;5009599;28;20073;-77
2021/03/16 08:55:48;;;;;;;12.73;5.38;;;;;;;2.80;99.76;91714.66;5008869;28;19987;-77
2021/03/16 08:58:15;;;;;;;36.67;10.43;;;;;;;2.83;99.95;91716.81;5019229;28;20095;-77
2021/03/16 09:00:43;;;;;;;18.38;7.72;;;;;;;2.98;100.00;91723.38;5028542;28;20057;-77
2021/03/16 09:03:09;;;;;;;26.85;6.88;;;;;;;3.07;100.00;91722.94;5028111;28;20490;-77
2021/03/16 09:05:35;;;;;;;19.60;5.85;;;;;;;3.03;100.00;91703.25;5027236;28;20386;-78
2021/03/16 09:08:02;;;;;;;11.93;6.95;;;;;;;3.33;98.91;91715.44;5027465;28;20045;-78
2021/03/16 09:10:28;;;;;;;13.27;5.05;;;;;;;3.34;98.59;91715.25;5028000;28;20402;-78
2021/03/16 09:12:55;;;;;;;63.58;15.43;;;;;;;3.41;97.07;91724.56;5028468;28;20573;-77
2021/03/16 09:15:25;;;;;;;74.82;24.23;;;;;;;3.51;97.19;91726.69;5028779;28;20059;-77
2021/03/16 09:17:54;;;;;;;23.65;9.93;;;;;;;3.52;97.09;91707.94;5028765;28;20120;-76
2021/03/16 09:20:22;;;;;;;25.33;8.50;;;;;;;3.57;96.28;91730.97;5031955;28;20053;-77
2021/03/16 09:22:53;;;;;;;12.93;6.80;;;;;;;3.57;95.05;91725.88;5032238;28;20064;-77
2021/03/16 09:25:24;;;;;;;27.95;9.18;;;;;;;3.36;96.70;91704.88;5032200;28;20104;-77
2021/03/16 09:27:51;;;;;;;59.28;18.08;;;;;;;3.46;97.16;91725.53;5032152;28;20045;-76
2021/03/16 09:30:19;;;;;;;42.55;11.25;;;;;;;3.50;96.38;91718.28;5031647;28;20095;-76
2021/03/16 09:32:46;;;;;;;45.88;15.07;;;;;;;3.65;96.77;91735.78;5032128;28;20045;-76
2021/03/16 09:35:19;;;;;;;88.38;20.90;;;;;;;3.64;96.00;91746.16;5032066;28;20391;-76
2021/03/16 09:37:48;;;;;;;61.13;17.85;;;;;;;3.50;95.70;91730.19;5022545;28;20054;-76
2021/03/16 09:40:16;;;;;;;17.85;6.63;;;;;;;3.51;95.31;91741.94;5012030;28;20046;-77
2021/03/16 09:42:46;;;;;;;37.85;11.68;;;;;;;3.47;97.36;91747.41;5011994;28;20050;-77
2021/03/16 09:45:18;;;;;;;13.18;6.93;;;;;;;3.37;95.27;91731.81;5012257;28;20396;-76
2021/03/16 09:47:44;;;;;;;15.70;5.78;;;;;;;3.28;95.63;91750.81;5011971;28;20495;-77
2021/03/16 09:50:15;;;;;;;10.73;5.20;;;;;;;3.29;95.53;91737.13;5012544;28;20050;-77
2021/03/16 09:52:42;;;;;;;4.85;2.88;;;;;;;3.29;94.72;91753.13;5011793;28;20100;-77
2021/03/16 09:55:10;;;;;;;3.95;2.10;;;;;;;3.28;94.71;91745.75;5011041;28;20046;-77
2021/03/16 09:57:38;;;;;;;2.95;2.05;;;;;;;3.14;95.00;91760.22;5007606;28;20053;-77
2021/03/16 10:00:08;;;;;;;3.38;1.98;;;;;;;3.07;95.22;91760.25;5011630;28;20052;-77
2021/03/16 10:02:36;;;;;;;15.88;5.10;;;;;;;3.12;96.71;91762.16;5011781;28;20096;-76
2021/03/16 10:05:06;;;;;;;5.45;2.88;;;;;;;3.19;94.88;91760.38;5011526;28;20759;-76
2021/03/16 10:07:34;;;;;;;5.78;3.17;;;;;;;3.38;95.58;91771.44;5011510;28;20100;-76
2021/03/16 10:10:08;;;;;;;3.17;2.22;;;;;;;3.40;94.35;91768.72;5011869;28;20046;-76
2021/03/16 10:12:35;;;;;;;3.85;2.40;;;;;;;3.36;94.10;91770.09;5011752;28;20046;-76
2021/03/16 10:15:01;;;;;;;;;;;;;;;3.42;95.99;91772.63;5004722;28;20499;-76
2021/03/16 10:17:29;;;;;;;5.80;2.13;;;;;;;3.30;94.84;91777.56;4992171;28;19932;-76
2021/03/16 10:19:56;;;;;;;3.35;1.90;;;;;;;3.18;95.85;91756.28;4992072;28;20058;-76
2021/03/16 10:22:34;;;;;;;9.98;4.57;;;;;;;3.27;95.42;91777.94;4991900;28;20050;-76
2021/03/16 10:25:02;;;;;;;6.78;3.03;;;;;;;3.12;95.29;91759.63;4991574;28;20693;-76
2021/03/16 10:27:30;;;;;;;5.68;3.25;;;;;;;3.05;96.79;91780.72;4991670;28;20545;-76
2021/03/16 10:30:01;;;;;;;4.75;2.53;;;;;;;3.07;96.59;91775.47;4991403;28;20061;-76
2021/03/16 10:32:27;;;;;;;5.40;2.75;;;;;;;3.02;96.90;91782.88;4991358;28;20488;-76
2021/03/16 10:34:53;;;;;;;;;;;;;;;3.02;97.82;91787.97;4991959;28;20054;-76
2021/03/16 10:37:21;;;;;;;8.50;3.42;;;;;;;2.83;97.70;91767.53;4991568;28;19933;-76
2021/03/16 10:39:49;;;;;;;5.90;3.08;;;;;;;2.86;97.25;91789.19;4991452;28;20046;-76
2021/03/16 10:42:16;;;;;;;9.90;3.85;;;;;;;2.87;97.66;91790.72;4991367;28;20061;-76
2021/03/16 10:44:43;;;;;;;3.90;2.42;;;;;;;2.76;96.98;91787.03;4991225;28;20500;-77
2021/03/16 10:47:09;;;;;;;7.00;3.42;;;;;;;2.78;97.78;91792.69;4991286;28;20404;-76
2021/03/16 10:49:36;;;;;;;8.38;4.47;;;;;;;2.85;98.56;91790.91;4991554;28;20444;-76
2021/03/16 10:52:03;;;;;;;9.82;2.50;;;;;;;2.97;98.62;91796.19;5002033;28;20053;-76
2021/03/16 10:54:30;;;;;;;4.70;3.13;;;;;;;3.07;98.52;91788.91;5010811;28;20053;-76
2021/03/16 10:56:57;;;;;;;15.30;8.02;;;;;;;3.17;98.31;91785.19;5010865;28;20140;-76
2021/03/16 10:59:24;;;;;;;7.20;5.18;;;;;;;3.18;96.64;91797.69;5010555;28;20054;-77
2021/03/16 11:01:51;;;;;;;9.10;3.88;;;;;;;3.10;97.10;91787.75;5010763;28;20046;-76
2021/03/16 11:04:18;;;;;;;9.30;4.68;;;;;;;3.13;99.02;91791.63;5010800;28;20057;-76
2021/03/16 11:06:45;;;;;;;6.53;3.35;;;;;;;3.03;97.29;91803.00;5010852;28;20046;-76
2021/03/16 11:09:12;;;;;;;5.20;2.22;;;;;;;3.04;97.63;91791.06;5010269;28;20050;-76
2021/03/16 11:11:38;;;;;;;6.57;2.67;;;;;;;3.11;97.36;91799.47;5010641;28;20049;-76
2021/03/16 11:14:06;;;;;;;3.22;1.77;;;;;;;3.08;96.43;91797.31;5010402;28;20045;-76
2021/03/16 11:16:32;;;;;;;4.53;2.83;;;;;;;3.02;97.71;91778.59;5010615;28;20084;-76
2021/03/16 11:18:58;;;;;;;7.55;2.30;;;;;;;3.17;97.58;91777.56;5010622;28;20062;-76
2021/03/16 11:21:24;;;;;;;;;;;;;;;3.20;96.82;91789.88;5010912;28;20054;-76
2021/03/16 11:23:51;;;;;;;5.65;2.83;;;;;;;3.17;98.41;91788.53;5010011;28;20400;-76
2021/03/16 11:26:18;;;;;;;6.05;3.15;;;;;;;3.18;97.61;91774.84;5010021;28;20073;-76
2021/03/16 11:28:44;;;;;;;3.78;2.13;;;;;;;3.25;96.66;91779.91;5010031;28;20138;-76
2021/03/16 11:31:11;;;;;;;;;;;;;;;3.23;95.63;91779.31;5010617;28;20054;-76
2021/03/16 11:33:37;;;;;;;3.03;1.67;;;;;;;3.18;95.96;91781.66;5010320;28;19925;-76
2021/03/16 11:36:04;;;;;;;5.35;3.42;;;;;;;3.22;97.67;91777.75;5009989;28;20045;-77
2021/03/16 11:38:31;;;;;;;5.00;2.92;;;;;;;3.14;97.77;91773.69;5010042;28;20521;-77
2021/03/16 11:40:58;;;;;;;5.97;3.55;;;;;;;3.12;97.04;91779.94;5009786;28;20042;-77
2021/03/16 11:43:24;;;;;;;;;;;;;;;3.18;98.20;91774.06;5010868;28;20054;-77
2021/03/16 11:45:50;;;;;;;6.05;2.70;;;;;;;3.21;98.50;91782.03;5010112;28;19921;-77